CLT TRACON Summary / KCLT TAF
CLT TRACON Summary:
Remnants of Tropical Storm Bonnie will drift northeast along the NC Coast. Expect scattered showers and thunderstorms to develop over the mountains and foothills with afternoon heating. Cells will move south to southeast at 5-15kts with the best chance for thunderstorms near CLT between 21-02z. SCT/BKN040-060 clouds will develop between 15-18z. Surface winds will be northeast to north at 3-10kts. Flight hazards in the TRACON airspace outside convection: None Expected.

Updated:5/31/2016 6:19 AM
CLT Terminal Aerodrome Forecast:

FTUS80 KCLT 311500 AAA
KCLT 311458Z 3115/0112 02006KT P6SM SCT030
     FM311700 03005KT P6SM BKN045
      TEMPO 3122/0101 3SM -TSRA BR OVC025CB
     FM010200 04003KT P6SM SCT120
CLT TRACON Area Remark:
ISOLATED TS POSSIBLE SW/W/NW/N after 18z and ALL QUADS 21-02z.
Convective Gate Forecast / Collaborative Convective Forecast Product / Vertical Wind Profile
Convective Gate Forecast
-->
AIRMETs & SIGMETS/ Southeast Radar loop / Satellite Image (click on image to enlarge)

Southeast Radar Loop

 



USA.gov is the U.S. government's official web portal to all federal, state and local government web resources and services.